createdAt,value
2022-11-09T00:00:11.421Z,58.58
2022-11-09T00:02:42.889Z,58.13
2022-11-09T00:05:10.479Z,58.36
2022-11-09T00:07:36.993Z,58.35
2022-11-09T00:10:03.845Z,58.76
2022-11-09T00:12:30.409Z,58.66
2022-11-09T00:14:56.918Z,58.29
2022-11-09T00:17:23.426Z,58.39
2022-11-09T00:19:49.933Z,57.88
2022-11-09T00:22:16.479Z,58.79
2022-11-09T00:24:43.050Z,58.18
2022-11-09T00:27:11.880Z,58.11
2022-11-09T00:29:40.489Z,58.57
2022-11-09T00:32:07.008Z,58.50
2022-11-09T00:34:33.569Z,58.57
2022-11-09T00:37:00.128Z,58.46
2022-11-09T00:39:26.631Z,58.66
2022-11-09T00:41:57.584Z,58.36
2022-11-09T00:44:24.081Z,58.35
2022-11-09T00:46:50.911Z,58.18
2022-11-09T00:49:17.608Z,58.75
2022-11-09T00:51:44.122Z,58.75
2022-11-09T00:54:10.899Z,58.66
2022-11-09T00:56:37.388Z,58.48
2022-11-09T00:59:04.077Z,58.71
2022-11-09T01:01:31.868Z,58.92
2022-11-09T01:03:58.409Z,58.86
2022-11-09T01:06:26.368Z,58.33
2022-11-09T01:08:53.570Z,58.37
2022-11-09T01:11:21.069Z,58.46
2022-11-09T01:13:51.726Z,58.56
2022-11-09T01:16:21.585Z,58.76
2022-11-09T01:18:48.441Z,58.87
2022-11-09T01:21:16.006Z,58.38
2022-11-09T01:23:43.134Z,58.59
2022-11-09T01:26:12.309Z,58.86
2022-11-09T01:28:38.947Z,58.83
2022-11-09T01:31:17.492Z,58.83
2022-11-09T01:33:44.140Z,58.61
2022-11-09T01:36:15.663Z,58.62
2022-11-09T01:38:42.752Z,58.83
2022-11-09T01:41:13.844Z,58.77
2022-11-09T01:43:40.413Z,58.34
2022-11-09T01:46:16.182Z,58.68
2022-11-09T01:48:57.344Z,58.61
2022-11-09T01:51:33.697Z,58.65
2022-11-09T01:54:18.142Z,58.73
2022-11-09T01:56:46.021Z,58.90
2022-11-09T01:59:17.026Z,58.88
2022-11-09T02:01:44.414Z,58.96
2022-11-09T02:04:14.020Z,58.61
2022-11-09T02:06:40.709Z,58.77
2022-11-09T02:09:19.002Z,58.44
2022-11-09T02:11:45.547Z,58.98
2022-11-09T02:14:13.432Z,58.58
2022-11-09T02:16:40.806Z,58.40
2022-11-09T02:19:07.395Z,58.75
2022-11-09T02:21:34.344Z,58.65
2022-11-09T02:24:01.385Z,59.54
2022-11-09T02:26:34.946Z,59.00
2022-11-09T02:29:03.811Z,58.95
2022-11-09T02:31:34.388Z,58.74
2022-11-09T02:34:05.776Z,58.89
2022-11-09T02:36:32.684Z,58.98
2022-11-09T02:39:01.156Z,58.72
2022-11-09T02:41:28.567Z,58.86
2022-11-09T02:43:56.561Z,59.04
2022-11-09T02:46:32.042Z,58.86
2022-11-09T02:48:58.977Z,59.00
2022-11-09T02:51:25.544Z,59.20
2022-11-09T02:53:52.072Z,59.14
2022-11-09T02:56:21.605Z,59.19
2022-11-09T02:58:48.099Z,59.25
2022-11-09T03:01:16.019Z,59.29
2022-11-09T03:03:43.334Z,59.10
2022-11-09T03:06:09.990Z,59.45
2022-11-09T03:08:37.282Z,59.46
2022-11-09T03:11:06.015Z,59.38
2022-11-09T03:13:34.036Z,59.19
2022-11-09T03:16:05.644Z,59.20
2022-11-09T03:18:35.468Z,59.21
2022-11-09T03:21:06.184Z,59.29
2022-11-09T03:23:33.489Z,59.40
2022-11-09T03:26:01.270Z,59.27
2022-11-09T03:28:28.435Z,59.40
2022-11-09T03:30:55.409Z,59.37
2022-11-09T03:33:22.252Z,59.37
2022-11-09T03:35:49.076Z,59.42
2022-11-09T03:38:18.072Z,58.95
2022-11-09T03:40:45.084Z,59.32
2022-11-09T03:43:11.749Z,59.51
2022-11-09T03:45:38.397Z,59.35
2022-11-09T03:48:05.226Z,59.49
2022-11-09T03:50:33.245Z,59.48
2022-11-09T03:53:01.500Z,59.21
2022-11-09T03:55:28.914Z,59.35
2022-11-09T03:57:55.509Z,59.48
2022-11-09T04:00:22.948Z,59.74
2022-11-09T04:02:49.820Z,59.47
2022-11-09T04:05:16.782Z,59.58
2022-11-09T04:07:51.514Z,59.65
2022-11-09T04:10:18.931Z,59.52
2022-11-09T04:12:45.825Z,59.69
2022-11-09T04:15:12.721Z,59.60
2022-11-09T04:17:39.284Z,59.58
2022-11-09T04:20:07.365Z,59.65
2022-11-09T04:22:34.331Z,59.28
2022-11-09T04:25:00.826Z,59.54
2022-11-09T04:27:27.326Z,59.66
2022-11-09T04:29:53.822Z,59.78
2022-11-09T04:32:20.321Z,59.63
2022-11-09T04:34:46.831Z,59.97
2022-11-09T04:37:13.993Z,59.67
2022-11-09T04:39:40.493Z,59.72
2022-11-09T04:42:06.964Z,59.74
2022-11-09T04:44:33.451Z,59.84
2022-11-09T04:46:59.984Z,59.64
2022-11-09T04:49:26.516Z,59.71
2022-11-09T04:51:53.060Z,60.32
2022-11-09T04:54:19.548Z,59.85
2022-11-09T04:56:46.050Z,60.08
2022-11-09T04:59:12.581Z,60.33
2022-11-09T05:01:39.169Z,59.77
2022-11-09T05:04:05.714Z,60.05
2022-11-09T05:06:32.335Z,59.89
2022-11-09T05:09:05.138Z,59.98
2022-11-09T05:11:32.672Z,60.23
2022-11-09T05:13:59.522Z,59.84
2022-11-09T05:16:26.472Z,59.95
2022-11-09T05:18:53.032Z,60.10
2022-11-09T05:21:19.732Z,59.87
2022-11-09T05:24:02.864Z,60.35
2022-11-09T05:26:34.945Z,60.23
2022-11-09T05:29:03.692Z,60.39
2022-11-09T05:31:30.439Z,60.14
2022-11-09T05:33:57.455Z,60.07
2022-11-09T05:36:24.019Z,60.13
2022-11-09T05:38:51.054Z,60.42
2022-11-09T05:41:17.852Z,60.24
2022-11-09T05:43:45.198Z,60.11
2022-11-09T05:46:13.154Z,60.03
2022-11-09T05:48:40.182Z,60.14
2022-11-09T05:51:08.368Z,60.00
2022-11-09T05:53:34.856Z,60.12
2022-11-09T05:56:12.235Z,60.43
2022-11-09T05:58:39.082Z,60.40
2022-11-09T06:01:07.333Z,60.28
2022-11-09T06:03:33.994Z,60.42
2022-11-09T06:06:07.821Z,60.49
2022-11-09T06:08:35.074Z,61.03
2022-11-09T06:11:04.343Z,60.75
2022-11-09T06:13:31.128Z,60.71
2022-11-09T06:15:59.472Z,60.91
2022-11-09T06:18:27.392Z,60.82
2022-11-09T06:20:59.248Z,60.67
2022-11-09T06:23:26.410Z,60.78
2022-11-09T06:25:53.684Z,60.62
2022-11-09T06:28:21.155Z,60.47
2022-11-09T06:30:47.687Z,60.38
2022-11-09T06:33:14.171Z,60.48
2022-11-09T06:35:41.010Z,60.18
2022-11-09T06:38:09.025Z,60.23
2022-11-09T06:40:36.996Z,60.30
2022-11-09T06:43:04.118Z,60.04
2022-11-09T06:45:31.198Z,60.04
2022-11-09T06:48:02.521Z,60.00
2022-11-09T06:50:31.529Z,60.00
2022-11-09T06:52:59.813Z,59.93
2022-11-09T06:55:30.888Z,59.77
2022-11-09T06:57:58.279Z,59.92
2022-11-09T07:00:26.441Z,59.62
2022-11-09T07:02:53.191Z,59.45
2022-11-09T07:05:20.104Z,59.78
2022-11-09T07:07:46.637Z,59.20
2022-11-09T07:10:13.294Z,59.04
2022-11-09T07:12:39.778Z,59.15
2022-11-09T07:15:06.855Z,59.03
2022-11-09T07:17:34.301Z,58.83
2022-11-09T07:20:00.908Z,59.14
2022-11-09T07:22:27.667Z,58.81
2022-11-09T07:24:55.588Z,59.04
2022-11-09T07:27:27.491Z,58.74
2022-11-09T07:29:54.734Z,59.03
2022-11-09T07:32:27.384Z,58.60
2022-11-09T07:35:08.164Z,58.35
2022-11-09T07:37:34.671Z,58.24
2022-11-09T07:40:01.161Z,58.30
2022-11-09T07:42:27.708Z,58.62
2022-11-09T07:44:54.233Z,58.46
2022-11-09T07:47:20.798Z,58.54
2022-11-09T07:49:47.295Z,58.40
2022-11-09T07:52:14.090Z,58.73
2022-11-09T07:54:40.577Z,58.45
2022-11-09T07:57:07.283Z,58.38
2022-11-09T07:59:34.013Z,58.74
2022-11-09T08:02:00.538Z,58.59
2022-11-09T08:04:27.094Z,58.70
2022-11-09T08:06:54.273Z,58.92
2022-11-09T08:09:20.879Z,59.03
2022-11-09T08:11:47.358Z,58.37
2022-11-09T08:14:13.842Z,58.88
2022-11-09T08:16:40.352Z,58.80
2022-11-09T08:19:08.952Z,58.56
2022-11-09T08:21:35.768Z,59.09
2022-11-09T08:24:02.242Z,58.72
2022-11-09T08:26:28.804Z,59.23
2022-11-09T08:28:55.739Z,59.31
2022-11-09T08:31:22.442Z,59.27
2022-11-09T08:33:49.026Z,59.09
2022-11-09T08:36:17.660Z,59.89
2022-11-09T08:38:45.077Z,59.47
2022-11-09T08:41:13.759Z,59.62
2022-11-09T08:43:40.468Z,59.72
2022-11-09T08:46:06.982Z,59.28
2022-11-09T08:48:33.544Z,59.65
2022-11-09T08:51:00.375Z,59.32
2022-11-09T08:53:28.528Z,59.06
2022-11-09T08:55:55.104Z,58.97
2022-11-09T08:58:22.365Z,58.69
2022-11-09T09:00:49.250Z,58.49
2022-11-09T09:03:15.771Z,58.62
2022-11-09T09:05:42.265Z,58.50
2022-11-09T09:08:11.458Z,58.38
2022-11-09T09:10:38.079Z,58.00
2022-11-09T09:13:04.933Z,57.72
2022-11-09T09:15:31.793Z,57.95
2022-11-09T09:18:04.728Z,57.71
2022-11-09T09:20:32.115Z,57.51
2022-11-09T09:22:59.755Z,56.80
2022-11-09T09:25:27.364Z,56.94
2022-11-09T09:27:53.914Z,56.62
2022-11-09T09:30:20.426Z,56.28
2022-11-09T09:32:46.952Z,56.49
2022-11-09T09:35:13.468Z,56.53
2022-11-09T09:37:39.990Z,56.23
2022-11-09T09:40:07.141Z,55.84
2022-11-09T09:42:36.111Z,55.95
2022-11-09T09:45:12.507Z,55.83
2022-11-09T09:48:02.328Z,54.88
2022-11-09T09:50:32.269Z,54.12
2022-11-09T09:53:24.262Z,53.82
2022-11-09T09:56:06.500Z,53.70
2022-11-09T09:58:33.391Z,53.29
2022-11-09T10:01:11.045Z,53.07
2022-11-09T10:03:37.855Z,53.00
2022-11-09T10:06:29.227Z,52.70
2022-11-09T10:09:03.869Z,52.68
2022-11-09T10:11:43.711Z,53.23
2022-11-09T10:14:26.700Z,53.11
2022-11-09T10:17:07.597Z,52.86
2022-11-09T10:19:40.756Z,52.61
2022-11-09T10:22:24.176Z,52.17
2022-11-09T10:27:54.273Z,51.99
2022-11-09T10:30:22.084Z,51.49
2022-11-09T10:32:52.205Z,51.80
2022-11-09T10:35:21.488Z,51.49
2022-11-09T10:37:50.119Z,51.44
2022-11-09T10:40:33.184Z,51.25
2022-11-09T10:43:18.360Z,51.19
2022-11-09T10:46:08.244Z,50.87
2022-11-09T10:48:54.214Z,50.62
2022-11-09T10:51:46.438Z,50.11
2022-11-09T10:54:35.082Z,49.50
2022-11-09T10:57:22.171Z,49.10
2022-11-09T11:00:15.143Z,48.97
2022-11-09T11:03:10.189Z,48.80
2022-11-09T11:06:00.553Z,48.46
2022-11-09T11:08:50.488Z,48.21
2022-11-09T11:11:37.726Z,48.14
2022-11-09T11:14:23.595Z,47.88
2022-11-09T11:17:26.445Z,47.51
2022-11-09T11:20:27.012Z,47.15
2022-11-09T11:23:20.904Z,47.04
2022-11-09T11:26:26.980Z,46.77
2022-11-09T11:29:21.285Z,46.98
2022-11-09T11:32:12.218Z,47.32
2022-11-09T11:35:00.844Z,46.68
2022-11-09T11:37:55.336Z,46.27
2022-11-09T11:41:06.715Z,45.62
2022-11-09T11:44:29.252Z,45.51
2022-11-09T11:47:24.735Z,45.76
2022-11-09T11:50:43.130Z,45.44
2022-11-09T11:53:47.376Z,45.69
2022-11-09T11:56:34.937Z,45.17
2022-11-09T11:59:24.488Z,45.48
2022-11-09T12:02:21.753Z,46.04
2022-11-09T12:05:37.384Z,46.27
2022-11-09T12:08:25.622Z,45.94
2022-11-09T12:11:40.980Z,45.67
2022-11-09T12:14:57.387Z,45.83
2022-11-09T12:17:52.103Z,46.08
2022-11-09T12:20:44.572Z,45.72
2022-11-09T12:24:12.550Z,46.56
2022-11-09T12:27:31.146Z,46.37
2022-11-09T12:30:24.153Z,46.17
2022-11-09T12:33:14.221Z,45.05
2022-11-09T12:36:09.612Z,45.66
2022-11-09T12:39:01.477Z,45.96
2022-11-09T12:41:48.081Z,46.29
2022-11-09T12:44:45.302Z,46.73
2022-11-09T12:47:37.326Z,46.86
2022-11-09T12:50:25.509Z,47.63
2022-11-09T12:53:10.949Z,48.00
2022-11-09T12:56:20.867Z,48.38
2022-11-09T12:59:22.561Z,48.42
2022-11-09T13:02:25.880Z,48.68
2022-11-09T13:05:35.857Z,48.91
2022-11-09T13:08:26.288Z,48.31
2022-11-09T13:11:20.248Z,48.59
2022-11-09T13:14:23.536Z,48.56
2022-11-09T13:17:20.704Z,48.81
2022-11-09T13:20:53.841Z,49.18
2022-11-09T13:26:48.332Z,48.94
2022-11-09T13:29:39.363Z,48.86
2022-11-09T13:32:34.882Z,48.60
2022-11-09T13:35:46.209Z,48.65
2022-11-09T13:38:32.471Z,48.10
2022-11-09T13:41:30.390Z,47.92
2022-11-09T13:44:27.140Z,47.28
2022-11-09T13:47:45.852Z,47.49
2022-11-09T13:50:32.273Z,47.92
2022-11-09T13:53:26.748Z,47.96
2022-11-09T13:56:30.245Z,48.35
2022-11-09T13:59:18.781Z,48.29
2022-11-09T14:02:18.063Z,48.62
2022-11-09T14:05:03.293Z,49.62
2022-11-09T14:07:48.696Z,49.23
2022-11-09T14:10:49.558Z,48.79
2022-11-09T14:13:43.908Z,47.91
2022-11-09T14:16:56.508Z,48.16
2022-11-09T14:19:47.136Z,47.71
2022-11-09T14:22:35.047Z,47.22
2022-11-09T14:25:23.287Z,46.48
2022-11-09T14:28:29.270Z,47.09
2022-11-09T14:31:33.316Z,46.66
2022-11-09T14:34:18.257Z,46.59
2022-11-09T14:37:06.132Z,47.34
2022-11-09T14:39:53.095Z,48.22
2022-11-09T14:42:42.155Z,47.86
2022-11-09T14:45:31.062Z,47.94
2022-11-09T14:48:20.965Z,48.39
2022-11-09T14:51:07.854Z,48.14
2022-11-09T14:53:53.178Z,48.23
2022-11-09T14:56:38.900Z,48.56
2022-11-09T14:59:31.676Z,48.78
2022-11-09T15:02:21.508Z,48.99
2022-11-09T15:05:07.500Z,49.17
2022-11-09T15:07:52.608Z,49.39
2022-11-09T15:10:38.341Z,50.35
2022-11-09T15:13:35.734Z,50.43
2022-11-09T15:16:24.041Z,50.69
2022-11-09T15:19:30.288Z,50.73
2022-11-09T15:22:54.415Z,50.62
2022-11-09T15:25:43.389Z,50.61
2022-11-09T15:28:30.989Z,50.97
2022-11-09T15:31:18.691Z,50.96
2022-11-09T15:34:21.325Z,51.00
2022-11-09T15:37:27.073Z,51.28
2022-11-09T15:40:14.825Z,51.51
2022-11-09T15:42:59.999Z,51.69
2022-11-09T15:45:44.905Z,51.81
2022-11-09T15:48:30.459Z,52.02
2022-11-09T15:51:15.678Z,51.89
2022-11-09T15:54:00.520Z,52.17
2022-11-09T15:56:45.828Z,52.89
2022-11-09T15:59:30.881Z,52.47
2022-11-09T16:02:16.152Z,52.70
2022-11-09T16:05:01.548Z,52.88
2022-11-09T16:07:48.468Z,53.31
2022-11-09T16:10:37.348Z,53.39
2022-11-09T16:13:22.679Z,53.41
2022-11-09T16:16:09.404Z,53.60
2022-11-09T16:18:55.644Z,53.82
2022-11-09T16:21:40.965Z,53.98
2022-11-09T16:24:25.993Z,54.08
2022-11-09T16:27:17.167Z,54.36
2022-11-09T16:30:13.729Z,54.04
2022-11-09T16:32:58.712Z,54.35
2022-11-09T16:35:43.984Z,54.46
2022-11-09T16:38:30.809Z,54.49
2022-11-09T16:41:16.320Z,54.81
2022-11-09T16:44:03.344Z,54.90
2022-11-09T16:46:48.723Z,55.26
2022-11-09T16:49:33.869Z,54.60
2022-11-09T16:52:20.272Z,54.95
2022-11-09T16:55:07.674Z,54.91
2022-11-09T16:57:53.859Z,55.06
2022-11-09T17:03:52.241Z,55.59
2022-11-09T17:06:37.281Z,55.30
2022-11-09T17:09:22.960Z,55.46
2022-11-09T17:12:08.060Z,55.70
2022-11-09T17:14:53.360Z,55.39
2022-11-09T17:17:38.679Z,55.55
2022-11-09T17:20:23.831Z,55.77
2022-11-09T17:23:09.959Z,55.85
2022-11-09T17:25:59.615Z,55.64
2022-11-09T17:28:44.561Z,55.53
2022-11-09T17:31:29.849Z,55.71
2022-11-09T17:34:15.780Z,55.46
2022-11-09T17:37:05.394Z,55.70
2022-11-09T17:39:51.072Z,55.72
2022-11-09T17:42:35.966Z,55.88
2022-11-09T17:45:21.371Z,56.11
2022-11-09T17:48:06.752Z,55.89
2022-11-09T17:50:51.743Z,55.77
2022-11-09T17:53:36.865Z,56.21
2022-11-09T17:56:21.870Z,56.14
2022-11-09T17:59:07.103Z,56.32
2022-11-09T18:01:52.272Z,56.58
2022-11-09T18:04:37.788Z,56.57
2022-11-09T18:07:23.197Z,56.51
2022-11-09T18:10:08.721Z,56.68
2022-11-09T18:12:53.733Z,56.89
2022-11-09T18:15:39.441Z,57.06
2022-11-09T18:18:25.249Z,57.08
2022-11-09T18:21:16.244Z,57.12
2022-11-09T18:24:01.276Z,57.10
2022-11-09T18:26:46.337Z,57.36
2022-11-09T18:29:31.318Z,57.89
2022-11-09T18:32:16.561Z,57.82
2022-11-09T18:35:01.598Z,58.23
2022-11-09T18:37:48.421Z,57.64
2022-11-09T18:40:33.774Z,58.60
2022-11-09T18:43:18.896Z,58.54
2022-11-09T18:46:09.193Z,58.78
2022-11-09T18:48:54.672Z,58.99
2022-11-09T18:51:39.654Z,59.48
2022-11-09T18:54:24.696Z,59.92
2022-11-09T18:57:13.798Z,60.21
2022-11-09T19:00:03.452Z,60.17
2022-11-09T19:02:48.662Z,60.17
2022-11-09T19:05:36.733Z,60.16
2022-11-09T19:08:42.353Z,60.59
2022-11-09T19:11:27.740Z,61.31
2022-11-09T19:14:12.754Z,62.21
2022-11-09T19:16:57.917Z,62.13
2022-11-09T19:19:42.743Z,62.08
2022-11-09T19:22:29.065Z,61.84
2022-11-09T19:25:14.681Z,62.65
2022-11-09T19:27:59.777Z,62.86
2022-11-09T19:30:45.114Z,63.14
2022-11-09T19:33:30.249Z,62.74
2022-11-09T19:36:29.676Z,63.80
2022-11-09T19:39:16.156Z,63.97
2022-11-09T19:42:01.343Z,64.75
2022-11-09T19:44:48.151Z,64.43
2022-11-09T19:47:34.688Z,64.31
2022-11-09T19:50:19.910Z,64.86
2022-11-09T19:53:04.800Z,65.11
2022-11-09T19:55:49.760Z,64.88
2022-11-09T19:58:35.463Z,65.24
2022-11-09T20:01:20.868Z,65.57
2022-11-09T20:04:10.062Z,65.83
2022-11-09T20:06:55.528Z,66.58
2022-11-09T20:09:40.312Z,66.79
2022-11-09T20:12:44.016Z,66.75
2022-11-09T20:15:29.228Z,66.72
2022-11-09T20:18:14.904Z,67.38
2022-11-09T20:20:59.977Z,67.82
2022-11-09T20:23:45.129Z,67.87
2022-11-09T20:26:30.431Z,67.78
2022-11-09T20:29:15.605Z,67.70
2022-11-09T20:32:00.775Z,67.79
2022-11-09T20:34:46.507Z,68.13
2022-11-09T20:37:31.407Z,68.42
2022-11-09T20:40:16.794Z,68.51
2022-11-09T20:43:01.798Z,68.57
2022-11-09T20:45:47.154Z,68.96
2022-11-09T20:48:52.697Z,68.97
2022-11-09T20:51:37.921Z,69.23
2022-11-09T20:54:23.143Z,69.24
2022-11-09T20:57:08.321Z,69.34
2022-11-09T20:59:53.507Z,69.46
2022-11-09T21:02:38.756Z,69.56
2022-11-09T21:05:23.846Z,70.14
2022-11-09T21:08:09.196Z,70.22
2022-11-09T21:10:54.737Z,70.28
2022-11-09T21:13:41.481Z,70.00
2022-11-09T21:16:27.028Z,70.00
2022-11-09T21:19:12.010Z,70.19
2022-11-09T21:21:57.208Z,70.71
2022-11-09T21:25:00.863Z,70.73
2022-11-09T21:28:04.733Z,72.16
2022-11-09T21:30:50.096Z,73.11
2022-11-09T21:33:35.348Z,73.78
2022-11-09T21:36:20.797Z,73.29
2022-11-09T21:39:06.187Z,72.92
2022-11-09T21:41:51.736Z,72.55
2022-11-09T21:44:36.594Z,72.87
2022-11-09T21:47:22.922Z,72.50
2022-11-09T21:50:12.557Z,72.63
2022-11-09T21:52:58.395Z,72.64
2022-11-09T21:55:43.686Z,72.66
2022-11-09T21:58:28.669Z,73.04
2022-11-09T22:01:14.107Z,72.64
2022-11-09T22:03:59.399Z,72.97
2022-11-09T22:06:44.824Z,72.73
2022-11-09T22:09:50.410Z,72.88
2022-11-09T22:12:55.911Z,72.78
2022-11-09T22:15:59.853Z,72.90
2022-11-09T22:19:03.665Z,72.76
2022-11-09T22:21:49.040Z,73.02
2022-11-09T22:24:34.087Z,72.76
2022-11-09T22:27:19.423Z,72.83
2022-11-09T22:30:04.824Z,73.26
2022-11-09T22:32:50.068Z,72.94
2022-11-09T22:35:35.311Z,73.19
2022-11-09T22:38:20.270Z,73.25
2022-11-09T22:41:07.899Z,72.68
2022-11-09T22:43:53.875Z,72.45
2022-11-09T22:46:39.271Z,72.80
2022-11-09T22:49:24.345Z,72.63
2022-11-09T22:52:10.245Z,72.98
2022-11-09T22:54:55.606Z,72.68
2022-11-09T22:57:40.852Z,72.73
2022-11-09T23:00:26.076Z,72.46
2022-11-09T23:03:11.206Z,72.88
2022-11-09T23:06:01.551Z,73.01
2022-11-09T23:08:47.233Z,73.06
2022-11-09T23:11:32.819Z,73.44
2022-11-09T23:14:38.136Z,73.24
2022-11-09T23:17:41.753Z,72.71
2022-11-09T23:20:31.202Z,72.59
2022-11-09T23:23:19.686Z,72.72
2022-11-09T23:26:05.948Z,73.09
2022-11-09T23:28:51.411Z,72.27
2022-11-09T23:31:36.657Z,72.94
2022-11-09T23:34:21.567Z,73.11
2022-11-09T23:37:06.643Z,72.83
2022-11-09T23:39:51.405Z,73.00
2022-11-09T23:42:36.421Z,72.93
2022-11-09T23:45:21.703Z,72.92
2022-11-09T23:48:08.851Z,73.35
2022-11-09T23:50:57.188Z,73.21
2022-11-09T23:53:42.168Z,74.02
2022-11-09T23:56:27.130Z,73.26
2022-11-09T23:59:12.044Z,73.52
